Time;durP1;ratioP1;P1;durP2;ratioP2;P2;SDS_P1;SDS_P2;PMS_P1;PMS_P2;Temp;Humidity;BMP_temperature;BMP_pressure;BME280_temperature;BME280_humidity;BME280_pressure;Samples;Min_cycle;Max_cycle;Signal;HPM_P1;HPM_P2
2023/08/05 00:01:11;;;;;;;13.18;10.80;;;;;;;;;;5001543;28;20038;-75
2023/08/05 00:03:37;;;;;;;11.60;10.60;;;;;;;;;;4995540;28;20057;-75
2023/08/05 00:06:03;;;;;;;12.32;11.15;;;;;;;;;;4999657;28;20116;-75
2023/08/05 00:08:28;;;;;;;11.90;10.68;;;;;;;;;;5001181;28;20037;-75
2023/08/05 00:10:54;;;;;;;12.05;10.77;;;;;;;;;;5001277;28;20034;-75
2023/08/05 00:13:19;;;;;;;11.82;10.65;;;;;;;;;;4998523;28;20038;-75
2023/08/05 00:15:45;;;;;;;11.63;10.63;;;;;;;;;;4997882;28;20034;-75
2023/08/05 00:18:11;;;;;;;11.93;10.70;;;;;;;;;;4999021;28;20080;-75
2023/08/05 00:20:36;;;;;;;11.50;10.60;;;;;;;;;;4999275;28;20401;-75
2023/08/05 00:23:02;;;;;;;11.95;10.88;;;;;;;;;;5000831;28;20068;-75
2023/08/05 00:25:27;;;;;;;11.98;10.88;;;;;;;;;;5001443;28;20042;-75
2023/08/05 00:27:53;;;;;;;12.00;10.80;;;;;;;;;;4999195;28;20058;-75
2023/08/05 00:30:19;;;;;;;12.57;11.27;;;;;;;;;;4999891;28;20041;-75
2023/08/05 00:32:44;;;;;;;10.57;9.63;;;;;;;;;;5003053;28;20053;-77
2023/08/05 00:35:10;;;;;;;11.25;10.25;;;;;;;;;;4999870;28;20037;-75
2023/08/05 00:37:36;;;;;;;11.88;10.68;;;;;;;;;;4998602;28;20037;-75
2023/08/05 00:40:04;;;;;;;11.30;10.27;;;;;;;;;;5000206;28;20030;-75
2023/08/05 00:42:30;;;;;;;11.90;10.75;;;;;;;;;;5006279;28;20046;-75
2023/08/05 00:44:55;;;;;;;11.02;10.13;;;;;;;;;;5000480;28;20045;-75
2023/08/05 00:47:21;;;;;;;12.07;11.02;;;;;;;;;;4996365;28;20034;-75
2023/08/05 00:49:52;;;;;;;11.45;10.48;;;;;;;;;;4999388;28;20026;-75
2023/08/05 00:52:20;;;;;;;11.95;10.65;;;;;;;;;;4997925;28;20129;-75
2023/08/05 00:54:46;;;;;;;12.15;10.95;;;;;;;;;;5003661;28;20046;-75
2023/08/05 00:57:13;;;;;;;11.07;10.07;;;;;;;;;;5000639;28;20036;-73
2023/08/05 00:59:39;;;;;;;12.90;10.73;;;;;;;;;;5003867;28;20033;-73
2023/08/05 01:02:06;;;;;;;11.13;10.23;;;;;;;;;;5002417;28;20038;-74
2023/08/05 01:04:32;;;;;;;11.25;10.25;;;;;;;;;;5014322;28;20529;-73
2023/08/05 01:06:59;;;;;;;11.70;10.55;;;;;;;;;;5002508;28;20033;-73
2023/08/05 01:09:25;;;;;;;10.95;9.95;;;;;;;;;;5006874;28;20124;-74
2023/08/05 01:11:50;;;;;;;10.90;9.80;;;;;;;;;;5006944;28;20053;-73
2023/08/05 01:14:16;;;;;;;11.85;10.63;;;;;;;;;;5007418;28;20037;-74
2023/08/05 01:16:44;;;;;;;11.80;9.18;;;;;;;;;;5007410;28;20127;-73
2023/08/05 01:19:17;;;;;;;18.73;10.48;;;;;;;;;;5005984;28;20632;-74
2023/08/05 01:22:10;;;;;;;11.10;9.93;;;;;;;;;;5016398;28;20104;-74
2023/08/05 01:24:57;;;;;;;10.98;9.90;;;;;;;;;;5007131;28;20539;-74
2023/08/05 01:27:23;;;;;;;11.10;10.13;;;;;;;;;;5005576;28;20037;-74
2023/08/05 01:29:49;;;;;;;11.15;9.82;;;;;;;;;;5006772;28;20033;-74
2023/08/05 01:32:17;;;;;;;11.63;10.52;;;;;;;;;;5004806;28;20042;-74
2023/08/05 01:34:43;;;;;;;11.25;10.23;;;;;;;;;;5005505;28;20041;-74
2023/08/05 01:37:09;;;;;;;12.25;10.25;;;;;;;;;;5006986;28;20038;-74
2023/08/05 01:39:34;;;;;;;12.48;10.30;;;;;;;;;;4987306;28;20044;-74
2023/08/05 01:42:00;;;;;;;13.40;10.52;;;;;;;;;;5005494;28;20033;-74
2023/08/05 01:44:25;;;;;;;11.15;10.07;;;;;;;;;;5006875;28;20065;-74
2023/08/05 01:46:51;;;;;;;11.55;10.60;;;;;;;;;;5006514;28;20441;-74
2023/08/05 01:49:16;;;;;;;11.07;10.05;;;;;;;;;;5003614;28;20060;-74
2023/08/05 01:51:42;;;;;;;10.90;10.00;;;;;;;;;;5005198;28;20129;-74
2023/08/05 01:54:07;;;;;;;11.40;10.13;;;;;;;;;;5005188;28;20037;-74
2023/08/05 01:56:33;;;;;;;10.60;9.75;;;;;;;;;;4997101;28;20521;-74
2023/08/05 01:58:58;;;;;;;11.25;10.25;;;;;;;;;;5004262;28;20041;-74
2023/08/05 02:01:41;;;;;;;11.52;10.38;;;;;;;;;;5009262;28;20030;-74
2023/08/05 02:04:08;;;;;;;11.20;10.05;;;;;;;;;;5003754;28;20687;-74
2023/08/05 02:06:33;;;;;;;10.18;9.23;;;;;;;;;;5018419;28;20175;-74
2023/08/05 02:08:59;;;;;;;11.13;10.10;;;;;;;;;;5005688;28;20038;-74
2023/08/05 02:11:25;;;;;;;10.25;9.25;;;;;;;;;;5003483;28;20117;-74
2023/08/05 02:13:50;;;;;;;10.63;9.57;;;;;;;;;;4995372;28;20073;-74
2023/08/05 02:16:16;;;;;;;10.82;9.93;;;;;;;;;;5006104;28;20123;-74
2023/08/05 02:18:41;;;;;;;11.15;10.13;;;;;;;;;;5006028;28;20076;-74
2023/08/05 02:21:07;;;;;;;10.80;9.35;;;;;;;;;;5002210;28;20129;-74
2023/08/05 02:23:32;;;;;;;15.25;10.23;;;;;;;;;;5004260;28;20065;-74
2023/08/05 02:26:01;;;;;;;11.70;10.40;;;;;;;;;;5006578;28;20595;-74
2023/08/05 02:28:26;;;;;;;11.35;10.25;;;;;;;;;;5018412;28;20433;-74
2023/08/05 02:30:52;;;;;;;11.32;10.32;;;;;;;;;;5004528;28;20041;-74
2023/08/05 02:33:17;;;;;;;11.10;9.80;;;;;;;;;;5006262;28;20716;-74
2023/08/05 02:35:43;;;;;;;12.02;10.13;;;;;;;;;;5007008;28;20049;-74
2023/08/05 02:38:08;;;;;;;11.13;10.05;;;;;;;;;;5007662;28;20045;-74
2023/08/05 02:40:34;;;;;;;11.57;10.57;;;;;;;;;;5009305;28;20087;-74
2023/08/05 02:43:00;;;;;;;11.70;10.05;;;;;;;;;;5007741;28;20049;-74
2023/08/05 02:45:26;;;;;;;11.60;10.43;;;;;;;;;;5004303;28;20037;-74
2023/08/05 02:47:51;;;;;;;11.50;10.25;;;;;;;;;;5004958;28;20078;-73
2023/08/05 02:50:17;;;;;;;11.85;10.68;;;;;;;;;;5005170;28;20033;-73
2023/08/05 02:52:42;;;;;;;11.93;10.25;;;;;;;;;;4998411;28;20026;-73
2023/08/05 02:55:08;;;;;;;13.20;10.40;;;;;;;;;;5003639;28;20034;-74
2023/08/05 02:57:33;;;;;;;11.95;10.75;;;;;;;;;;5006272;28;20125;-74
2023/08/05 02:59:59;;;;;;;11.98;10.75;;;;;;;;;;5003552;28;20129;-74
2023/08/05 03:02:24;;;;;;;11.65;10.43;;;;;;;;;;5002020;28;20042;-74
2023/08/05 03:04:51;;;;;;;13.10;10.85;;;;;;;;;;5002760;28;20498;-74
2023/08/05 03:07:16;;;;;;;11.27;10.18;;;;;;;;;;5012669;28;20044;-74
2023/08/05 03:09:42;;;;;;;11.20;10.20;;;;;;;;;;4998231;28;20030;-74
2023/08/05 03:12:08;;;;;;;12.15;11.00;;;;;;;;;;4997535;28;20041;-74
2023/08/05 03:14:34;;;;;;;12.05;10.73;;;;;;;;;;4995755;28;20041;-74
2023/08/05 03:17:02;;;;;;;11.68;10.73;;;;;;;;;;4992256;28;20328;-74
2023/08/05 03:19:28;;;;;;;13.57;10.48;;;;;;;;;;4991881;28;20652;-74
2023/08/05 03:21:55;;;;;;;11.43;10.32;;;;;;;;;;4994630;28;20038;-74
2023/08/05 03:24:21;;;;;;;12.93;10.50;;;;;;;;;;4993934;28;20038;-74
2023/08/05 03:26:51;;;;;;;11.93;10.82;;;;;;;;;;5008871;28;20058;-74
2023/08/05 03:29:16;;;;;;;11.73;10.63;;;;;;;;;;4997340;28;20034;-74
2023/08/05 03:31:43;;;;;;;11.63;10.52;;;;;;;;;;4995790;28;20038;-74
2023/08/05 03:34:09;;;;;;;13.13;10.25;;;;;;;;;;4996176;28;20049;-74
2023/08/05 03:36:36;;;;;;;12.05;10.82;;;;;;;;;;4993610;28;20422;-74
2023/08/05 03:39:03;;;;;;;12.17;10.97;;;;;;;;;;4991663;28;20038;-74
2023/08/05 03:41:29;;;;;;;11.68;10.30;;;;;;;;;;4993672;28;20800;-74
2023/08/05 03:43:54;;;;;;;15.60;10.60;;;;;;;;;;5006163;28;20418;-73
2023/08/05 03:46:20;;;;;;;12.05;10.85;;;;;;;;;;5008943;28;20045;-74
2023/08/05 03:48:46;;;;;;;11.32;10.25;;;;;;;;;;4994653;28;20042;-74
2023/08/05 03:51:11;;;;;;;12.40;11.02;;;;;;;;;;4998999;28;20042;-74
2023/08/05 03:53:37;;;;;;;13.77;10.95;;;;;;;;;;4996851;28;20026;-74
2023/08/05 03:56:06;;;;;;;13.63;11.53;;;;;;;;;;4999641;28;20033;-74
2023/08/05 03:58:33;;;;;;;12.45;11.25;;;;;;;;;;4999308;28;20041;-73
2023/08/05 04:01:00;;;;;;;15.00;10.90;;;;;;;;;;5000315;28;20037;-74
2023/08/05 04:03:28;;;;;;;11.98;10.88;;;;;;;;;;5001936;28;20038;-74
2023/08/05 04:05:55;;;;;;;12.75;10.95;;;;;;;;;;5003103;28;20088;-73
2023/08/05 04:08:21;;;;;;;11.85;10.40;;;;;;;;;;5002807;28;20042;-74
2023/08/05 04:10:46;;;;;;;12.68;10.50;;;;;;;;;;5002063;28;20421;-73
2023/08/05 04:13:12;;;;;;;12.00;11.00;;;;;;;;;;5003363;28;20036;-73
2023/08/05 04:15:39;;;;;;;11.77;10.65;;;;;;;;;;5001705;28;20141;-74
2023/08/05 04:18:06;;;;;;;12.68;11.38;;;;;;;;;;5003420;28;20076;-74
2023/08/05 04:20:34;;;;;;;12.27;10.98;;;;;;;;;;4999226;28;20724;-74
2023/08/05 04:23:00;;;;;;;11.52;10.32;;;;;;;;;;5003656;28;20041;-74
2023/08/05 04:25:26;;;;;;;13.45;12.05;;;;;;;;;;5003132;28;20667;-74
2023/08/05 04:27:52;;;;;;;11.70;10.48;;;;;;;;;;5002215;28;20052;-74
2023/08/05 04:30:17;;;;;;;12.40;11.30;;;;;;;;;;5004039;28;20044;-74
2023/08/05 04:32:43;;;;;;;12.25;10.75;;;;;;;;;;5004676;28;20045;-73
2023/08/05 04:35:08;;;;;;;11.70;10.48;;;;;;;;;;5008355;28;20049;-73
2023/08/05 04:37:34;;;;;;;12.20;10.95;;;;;;;;;;5009322;28;20077;-74
2023/08/05 04:40:00;;;;;;;11.98;10.60;;;;;;;;;;5003161;28;20112;-73
2023/08/05 04:42:25;;;;;;;14.50;11.13;;;;;;;;;;4996080;28;20249;-73
2023/08/05 04:44:51;;;;;;;11.88;10.77;;;;;;;;;;5005305;28;20445;-73
2023/08/05 04:47:17;;;;;;;12.90;11.15;;;;;;;;;;5002749;28;20036;-73
2023/08/05 04:49:43;;;;;;;13.70;11.07;;;;;;;;;;5001875;28;20038;-74
2023/08/05 04:52:10;;;;;;;13.18;10.95;;;;;;;;;;5004246;28;20048;-73
2023/08/05 04:54:41;;;;;;;11.82;10.73;;;;;;;;;;5009410;28;20091;-73
2023/08/05 04:57:07;;;;;;;15.25;11.02;;;;;;;;;;5007610;28;20080;-73
2023/08/05 04:59:33;;;;;;;12.20;11.13;;;;;;;;;;5003614;28;20034;-73
2023/08/05 05:01:59;;;;;;;12.25;11.10;;;;;;;;;;5005006;28;20556;-73
2023/08/05 05:04:25;;;;;;;16.60;11.27;;;;;;;;;;5003226;28;20038;-73
2023/08/05 05:06:51;;;;;;;13.10;11.80;;;;;;;;;;5004807;28;20516;-73
2023/08/05 05:09:17;;;;;;;12.82;11.52;;;;;;;;;;5008785;28;20038;-73
2023/08/05 05:11:43;;;;;;;11.77;10.57;;;;;;;;;;5011033;28;20084;-74
2023/08/05 05:14:08;;;;;;;14.13;12.15;;;;;;;;;;5005050;28;20033;-72
2023/08/05 05:16:34;;;;;;;12.55;11.35;;;;;;;;;;5001754;28;20129;-73
2023/08/05 05:18:59;;;;;;;12.68;11.45;;;;;;;;;;5002785;28;20029;-75
2023/08/05 05:21:25;;;;;;;13.35;11.93;;;;;;;;;;5005293;28;20067;-72
2023/08/05 05:23:50;;;;;;;11.65;10.55;;;;;;;;;;5006189;28;20092;-72
2023/08/05 05:26:16;;;;;;;13.40;11.00;;;;;;;;;;5005615;28;20036;-73
2023/08/05 05:28:42;;;;;;;12.40;11.13;;;;;;;;;;5004136;28;20033;-73
2023/08/05 05:31:07;;;;;;;11.35;10.20;;;;;;;;;;5002538;28;20412;-73
2023/08/05 05:33:33;;;;;;;12.20;9.90;;;;;;;;;;5005628;28;20037;-73
2023/08/05 05:35:58;;;;;;;11.45;10.35;;;;;;;;;;5004031;28;20412;-73
2023/08/05 05:38:24;;;;;;;12.00;10.05;;;;;;;;;;5003460;28;20675;-73
2023/08/05 05:40:53;;;;;;;12.10;10.95;;;;;;;;;;5003601;28;20034;-73
2023/08/05 05:43:18;;;;;;;12.75;10.43;;;;;;;;;;5001394;28;20049;-73
2023/08/05 05:45:46;;;;;;;11.65;10.65;;;;;;;;;;5004361;28;20128;-73
2023/08/05 05:48:12;;;;;;;12.63;11.32;;;;;;;;;;5003222;28;20037;-74
2023/08/05 05:50:40;;;;;;;12.23;10.98;;;;;;;;;;5005160;28;20030;-73
2023/08/05 05:53:08;;;;;;;12.93;11.38;;;;;;;;;;5001512;28;20042;-73
2023/08/05 05:55:33;;;;;;;11.32;10.23;;;;;;;;;;5001305;28;20387;-73
2023/08/05 05:57:59;;;;;;;11.77;10.57;;;;;;;;;;5002502;28;20041;-73
2023/08/05 06:00:24;;;;;;;16.55;10.98;;;;;;;;;;5000665;28;20030;-73
2023/08/05 06:02:50;;;;;;;10.57;9.65;;;;;;;;;;5000873;28;20080;-73
2023/08/05 06:05:17;;;;;;;12.25;9.73;;;;;;;;;;5001349;28;20498;-73
2023/08/05 06:07:43;;;;;;;12.43;10.15;;;;;;;;;;5006047;28;20095;-73
2023/08/05 06:10:09;;;;;;;11.02;10.05;;;;;;;;;;5005553;28;20030;-73
2023/08/05 06:12:37;;;;;;;11.65;10.43;;;;;;;;;;5012093;28;20389;-73
2023/08/05 06:15:06;;;;;;;11.70;10.38;;;;;;;;;;5002818;28;20124;-73
2023/08/05 06:17:31;;;;;;;10.85;9.93;;;;;;;;;;5001504;28;20030;-73
2023/08/05 06:19:57;;;;;;;12.52;10.45;;;;;;;;;;5001461;28;20041;-73
2023/08/05 06:22:23;;;;;;;12.52;10.07;;;;;;;;;;5003054;28;20526;-73
2023/08/05 06:24:50;;;;;;;10.93;9.88;;;;;;;;;;5002997;28;20512;-73
2023/08/05 06:27:15;;;;;;;11.07;10.15;;;;;;;;;;5000082;28;20744;-73
2023/08/05 06:29:41;;;;;;;10.60;9.60;;;;;;;;;;5005298;28;20105;-73
2023/08/05 06:32:07;;;;;;;10.90;9.82;;;;;;;;;;4999223;28;20022;-73
2023/08/05 06:34:32;;;;;;;10.85;9.95;;;;;;;;;;5003790;28;20040;-73
2023/08/05 06:36:58;;;;;;;10.57;9.18;;;;;;;;;;4999653;28;20033;-73
2023/08/05 06:39:24;;;;;;;10.82;9.75;;;;;;;;;;5002529;28;20038;-73
2023/08/05 06:41:49;;;;;;;11.35;9.88;;;;;;;;;;5002586;28;20481;-73
2023/08/05 06:44:19;;;;;;;10.82;9.75;;;;;;;;;;5005453;28;20521;-73
2023/08/05 06:46:44;;;;;;;10.18;9.20;;;;;;;;;;5002460;28;20048;-73
2023/08/05 06:49:10;;;;;;;11.40;9.88;;;;;;;;;;5002223;28;20081;-73
2023/08/05 06:51:39;;;;;;;10.93;9.93;;;;;;;;;;4998177;28;20098;-73
2023/08/05 06:54:05;;;;;;;11.65;8.98;;;;;;;;;;4999214;28;20416;-73
2023/08/05 06:56:30;;;;;;;10.15;9.27;;;;;;;;;;5005431;28;20137;-73
2023/08/05 06:58:56;;;;;;;11.15;9.48;;;;;;;;;;5008868;28;20405;-73
2023/08/05 07:01:21;;;;;;;9.77;8.98;;;;;;;;;;5002642;28;20848;-73
2023/08/05 07:03:49;;;;;;;10.05;9.05;;;;;;;;;;5004174;28;20030;-73
2023/08/05 07:06:14;;;;;;;9.10;8.43;;;;;;;;;;5000170;28;20093;-74
2023/08/05 07:08:40;;;;;;;10.02;9.00;;;;;;;;;;5001925;28;20038;-73
2023/08/05 07:11:05;;;;;;;10.65;9.60;;;;;;;;;;5000291;28;20046;-73
2023/08/05 07:13:31;;;;;;;10.23;9.43;;;;;;;;;;5003306;28;20069;-73
2023/08/05 07:16:02;;;;;;;9.38;8.57;;;;;;;;;;5001518;28;20049;-73
2023/08/05 07:18:29;;;;;;;10.13;9.18;;;;;;;;;;5004553;28;20041;-73
2023/08/05 07:20:55;;;;;;;9.20;8.30;;;;;;;;;;5003903;28;20426;-74
2023/08/05 07:23:21;;;;;;;9.55;8.75;;;;;;;;;;5001654;28;20029;-73
2023/08/05 07:25:47;;;;;;;8.48;7.80;;;;;;;;;;4995020;28;20065;-73
2023/08/05 07:28:12;;;;;;;8.73;8.02;;;;;;;;;;4999547;28;20033;-73
2023/08/05 07:30:38;;;;;;;8.77;7.97;;;;;;;;;;4996428;28;20057;-76
2023/08/05 07:33:06;;;;;;;10.57;8.15;;;;;;;;;;4996861;28;20033;-74
2023/08/05 07:35:33;;;;;;;10.10;9.10;;;;;;;;;;4996714;28;20454;-74
2023/08/05 07:38:00;;;;;;;9.57;8.77;;;;;;;;;;5004601;28;20040;-74
2023/08/05 07:40:27;;;;;;;10.60;9.65;;;;;;;;;;5003777;28;20153;-74
2023/08/05 07:42:53;;;;;;;9.93;9.10;;;;;;;;;;5002482;28;20033;-74
2023/08/05 07:45:21;;;;;;;10.25;8.80;;;;;;;;;;5005038;28;20036;-75
2023/08/05 07:47:47;;;;;;;9.82;8.80;;;;;;;;;;5003893;28;21525;-74
2023/08/05 07:50:21;;;;;;;9.95;9.15;;;;;;;;;;5003497;28;20049;-74
2023/08/05 07:52:47;;;;;;;9.35;8.60;;;;;;;;;;4986316;28;20040;-74
2023/08/05 07:55:12;;;;;;;9.52;8.63;;;;;;;;;;4994160;28;20042;-74
2023/08/05 07:57:40;;;;;;;9.35;8.55;;;;;;;;;;5009069;28;20476;-73
2023/08/05 08:00:09;;;;;;;10.00;9.05;;;;;;;;;;4994956;28;20034;-74
2023/08/05 08:02:38;;;;;;;9.90;8.98;;;;;;;;;;4999293;28;20864;-74
2023/08/05 08:05:05;;;;;;;9.85;8.85;;;;;;;;;;5000208;28;20034;-74
2023/08/05 08:07:31;;;;;;;10.10;9.13;;;;;;;;;;4998164;28;20037;-74
2023/08/05 08:09:57;;;;;;;8.98;8.05;;;;;;;;;;4997746;28;20038;-74
2023/08/05 08:12:23;;;;;;;9.00;8.20;;;;;;;;;;4999304;28;20100;-74
2023/08/05 08:14:48;;;;;;;10.70;8.32;;;;;;;;;;4997202;28;20406;-74
2023/08/05 08:17:15;;;;;;;8.82;8.13;;;;;;;;;;4996013;28;20069;-74
2023/08/05 08:19:40;;;;;;;9.20;8.23;;;;;;;;;;5000795;28;20037;-74
2023/08/05 08:22:06;;;;;;;8.00;7.35;;;;;;;;;;5001577;28;20041;-74
2023/08/05 08:24:32;;;;;;;8.63;7.75;;;;;;;;;;5010688;28;20099;-74
2023/08/05 08:26:58;;;;;;;8.95;8.15;;;;;;;;;;5006673;28;20034;-74
2023/08/05 08:29:23;;;;;;;8.15;7.55;;;;;;;;;;5001282;28;20030;-74
2023/08/05 08:31:49;;;;;;;8.85;7.57;;;;;;;;;;5002385;28;20030;-74
2023/08/05 08:34:15;;;;;;;8.57;7.88;;;;;;;;;;5002305;28;20029;-74
2023/08/05 08:36:41;;;;;;;8.10;7.35;;;;;;;;;;5004062;28;20048;-75
2023/08/05 08:39:06;;;;;;;8.27;7.53;;;;;;;;;;5002982;28;20130;-73
2023/08/05 08:41:39;;;;;;;7.82;7.13;;;;;;;;;;5003298;28;20045;-74
2023/08/05 08:44:05;;;;;;;8.90;8.10;;;;;;;;;;5002378;28;20042;-74
2023/08/05 08:46:31;;;;;;;8.43;7.65;;;;;;;;;;5004252;28;20441;-74
2023/08/05 08:48:56;;;;;;;7.97;7.18;;;;;;;;;;5002776;28;20041;-74
2023/08/05 08:51:22;;;;;;;7.47;6.97;;;;;;;;;;5002375;28;20045;-74
2023/08/05 08:53:48;;;;;;;9.07;7.60;;;;;;;;;;5003399;28;20049;-74
2023/08/05 08:56:14;;;;;;;7.40;6.90;;;;;;;;;;5003417;28;20520;-74
2023/08/05 08:58:40;;;;;;;8.20;7.45;;;;;;;;;;5002493;28;20065;-73
2023/08/05 09:01:06;;;;;;;7.65;7.03;;;;;;;;;;5004020;28;20139;-74
2023/08/05 09:03:34;;;;;;;7.70;6.97;;;;;;;;;;5003505;28;20129;-74
2023/08/05 09:06:00;;;;;;;7.97;7.38;;;;;;;;;;5001167;28;20188;-75
2023/08/05 09:08:27;;;;;;;7.95;7.18;;;;;;;;;;5003540;28;20045;-74
2023/08/05 09:10:53;;;;;;;7.30;6.70;;;;;;;;;;5003431;28;20042;-75
2023/08/05 09:13:19;;;;;;;7.15;6.55;;;;;;;;;;5002389;28;20038;-74
2023/08/05 09:15:46;;;;;;;7.05;6.47;;;;;;;;;;5001988;28;20649;-75
2023/08/05 09:18:12;;;;;;;7.30;6.70;;;;;;;;;;5001660;28;20049;-74
2023/08/05 09:20:38;;;;;;;6.80;6.30;;;;;;;;;;5002935;28;20048;-74
2023/08/05 09:23:08;;;;;;;7.07;6.57;;;;;;;;;;5003516;28;20034;-74
2023/08/05 09:25:40;;;;;;;7.72;6.35;;;;;;;;;;5004116;28;20077;-74
2023/08/05 09:28:06;;;;;;;6.63;6.03;;;;;;;;;;5003765;28;20029;-74
2023/08/05 09:30:33;;;;;;;7.65;6.10;;;;;;;;;;5004475;28;20030;-74
2023/08/05 09:32:59;;;;;;;7.10;5.93;;;;;;;;;;5011307;28;20034;-74
2023/08/05 09:35:27;;;;;;;7.00;6.50;;;;;;;;;;5008777;28;20558;-76
2023/08/05 09:37:54;;;;;;;7.05;6.40;;;;;;;;;;5002728;28;20038;-75
2023/08/05 09:40:28;;;;;;;6.40;5.90;;;;;;;;;;5001916;28;20505;-75
2023/08/05 09:42:59;;;;;;;6.68;5.65;;;;;;;;;;5003902;28;20069;-75
2023/08/05 09:45:25;;;;;;;6.03;5.43;;;;;;;;;;5003124;28;20042;-75
2023/08/05 09:48:09;;;;;;;6.32;5.82;;;;;;;;;;5001715;28;20046;-74
2023/08/05 09:50:38;;;;;;;6.80;6.20;;;;;;;;;;5001956;28;20522;-74
2023/08/05 09:53:06;;;;;;;7.55;6.60;;;;;;;;;;5003313;28;20988;-75
2023/08/05 09:55:33;;;;;;;6.72;6.18;;;;;;;;;;5003033;28;20032;-74
2023/08/05 09:57:59;;;;;;;7.97;7.25;;;;;;;;;;5002467;28;20049;-74
2023/08/05 10:00:27;;;;;;;6.95;6.35;;;;;;;;;;5003457;28;20038;-74
2023/08/05 10:02:54;;;;;;;7.63;7.03;;;;;;;;;;5002885;28;20141;-74
2023/08/05 10:05:20;;;;;;;7.80;7.10;;;;;;;;;;5001186;28;20033;-74
2023/08/05 10:07:46;;;;;;;7.63;6.97;;;;;;;;;;5001766;28;20033;-74
2023/08/05 10:10:19;;;;;;;7.32;6.82;;;;;;;;;;5003324;28;20034;-74
2023/08/05 10:13:09;;;;;;;7.65;6.95;;;;;;;;;;4997884;28;20044;-74
2023/08/05 10:15:37;;;;;;;8.15;7.63;;;;;;;;;;4998102;28;20042;-74
2023/08/05 10:18:07;;;;;;;8.07;7.38;;;;;;;;;;4998720;28;20079;-74
2023/08/05 10:20:37;;;;;;;8.23;7.50;;;;;;;;;;5001710;28;20052;-74
2023/08/05 10:23:08;;;;;;;8.75;8.02;;;;;;;;;;4997585;28;20037;-74
2023/08/05 10:25:44;;;;;;;8.00;7.40;;;;;;;;;;5003306;28;20037;-74
2023/08/05 10:28:35;;;;;;;7.63;6.97;;;;;;;;;;5000623;28;20072;-74
2023/08/05 10:31:23;;;;;;;7.30;6.63;;;;;;;;;;5001388;28;20053;-74
2023/08/05 10:34:10;;;;;;;7.40;6.88;;;;;;;;;;5005071;28;20120;-74
2023/08/05 10:36:48;;;;;;;7.93;7.13;;;;;;;;;;5013270;28;20049;-74
2023/08/05 10:39:44;;;;;;;6.93;6.43;;;;;;;;;;4997519;28;20936;-74
2023/08/05 10:42:31;;;;;;;7.10;6.60;;;;;;;;;;4997306;28;20037;-75
2023/08/05 10:45:00;;;;;;;7.35;6.85;;;;;;;;;;4999526;28;20042;-74
2023/08/05 10:47:26;;;;;;;;;;;;;;;;;;5002584;28;20048;-74
2023/08/05 10:49:56;;;;;;;7.75;7.10;;;;;;;;;;5007405;28;19963;-74
2023/08/05 10:52:22;;;;;;;8.27;7.40;;;;;;;;;;5001826;28;20049;-74
2023/08/05 10:54:49;;;;;;;8.23;7.68;;;;;;;;;;5001993;28;20042;-74
2023/08/05 10:57:45;;;;;;;7.80;7.30;;;;;;;;;;4994466;28;21041;-74
2023/08/05 11:00:18;;;;;;;8.27;7.68;;;;;;;;;;5016577;28;20083;-75
2023/08/05 11:02:43;;;;;;;7.97;7.47;;;;;;;;;;5018471;28;20575;-75
2023/08/05 11:05:09;;;;;;;7.60;7.10;;;;;;;;;;5018123;28;20046;-75
2023/08/05 11:07:42;;;;;;;7.50;7.03;;;;;;;;;;5014773;28;20663;-75
2023/08/05 11:10:09;;;;;;;9.25;8.48;;;;;;;;;;5008730;28;20956;-75
2023/08/05 11:12:37;;;;;;;8.15;7.55;;;;;;;;;;5017091;28;20041;-75
2023/08/05 11:15:03;;;;;;;8.27;7.73;;;;;;;;;;5017524;28;20045;-75
2023/08/05 11:17:29;;;;;;;8.00;7.30;;;;;;;;;;5013954;28;20302;-75
2023/08/05 11:19:57;;;;;;;8.00;7.40;;;;;;;;;;5002928;28;20045;-75
2023/08/05 11:22:29;;;;;;;8.30;7.53;;;;;;;;;;5016578;28;20048;-74
2023/08/05 11:25:04;;;;;;;8.45;7.78;;;;;;;;;;5013674;28;20045;-74
2023/08/05 11:27:37;;;;;;;8.38;7.68;;;;;;;;;;5019146;28;20627;-74
2023/08/05 11:30:19;;;;;;;8.70;7.90;;;;;;;;;;5017123;28;20060;-74
2023/08/05 11:32:51;;;;;;;8.35;7.80;;;;;;;;;;5016507;28;20144;-74
2023/08/05 11:35:17;;;;;;;8.23;7.72;;;;;;;;;;5014874;28;20080;-74
2023/08/05 11:37:43;;;;;;;14.90;8.10;;;;;;;;;;5006503;28;20074;-73
2023/08/05 11:40:08;;;;;;;9.50;8.07;;;;;;;;;;4993667;28;20033;-73
2023/08/05 11:42:36;;;;;;;8.70;7.82;;;;;;;;;;4996475;28;20125;-75
2023/08/05 11:45:02;;;;;;;8.10;7.60;;;;;;;;;;4996393;28;20045;-73
2023/08/05 11:47:29;;;;;;;8.32;7.63;;;;;;;;;;4995367;28;20490;-73
2023/08/05 11:49:54;;;;;;;9.30;8.40;;;;;;;;;;4997216;28;20038;-75
2023/08/05 11:52:21;;;;;;;8.48;7.97;;;;;;;;;;4995890;28;20504;-74
2023/08/05 11:55:00;;;;;;;9.25;8.65;;;;;;;;;;4996785;28;20034;-74
2023/08/05 11:57:27;;;;;;;9.00;8.30;;;;;;;;;;4993323;28;20040;-74
2023/08/05 11:59:55;;;;;;;9.13;8.40;;;;;;;;;;4996937;28;20072;-74
2023/08/05 12:02:24;;;;;;;9.07;8.48;;;;;;;;;;4996695;28;20137;-74
2023/08/05 12:04:58;;;;;;;8.65;8.10;;;;;;;;;;4995477;28;20137;-74
2023/08/05 12:07:24;;;;;;;8.85;8.13;;;;;;;;;;4995238;28;20703;-74
2023/08/05 12:10:18;;;;;;;8.70;8.00;;;;;;;;;;4993773;28;20630;-75
2023/08/05 12:12:49;;;;;;;8.57;8.07;;;;;;;;;;4995750;28;20116;-75
2023/08/05 12:15:24;;;;;;;8.30;7.55;;;;;;;;;;4995342;28;20030;-74
2023/08/05 12:17:52;;;;;;;8.10;7.50;;;;;;;;;;4994818;28;20072;-74
2023/08/05 12:20:19;;;;;;;8.23;7.65;;;;;;;;;;4995823;28;20816;-74
2023/08/05 12:22:46;;;;;;;8.63;8.10;;;;;;;;;;4998103;28;20144;-74
2023/08/05 12:25:12;;;;;;;8.95;8.32;;;;;;;;;;4995924;28;20036;-74
2023/08/05 12:27:39;;;;;;;8.18;7.57;;;;;;;;;;4996051;28;20140;-74
2023/08/05 12:30:06;;;;;;;8.25;7.75;;;;;;;;;;4996183;28;20761;-74
2023/08/05 12:32:34;;;;;;;8.93;8.32;;;;;;;;;;4995176;28;20440;-74
2023/08/05 12:35:03;;;;;;;8.85;8.25;;;;;;;;;;4998327;28;20049;-74
2023/08/05 12:37:29;;;;;;;8.65;7.90;;;;;;;;;;4998743;28;20026;-74
2023/08/05 12:39:55;;;;;;;8.75;8.13;;;;;;;;;;4995711;28;20290;-74
2023/08/05 12:42:21;;;;;;;9.00;8.20;;;;;;;;;;5003453;28;20030;-74
2023/08/05 12:44:46;;;;;;;8.57;8.07;;;;;;;;;;5003352;28;20042;-74
2023/08/05 12:47:12;;;;;;;8.18;7.68;;;;;;;;;;4998512;28;20057;-74
2023/08/05 12:49:39;;;;;;;8.27;7.78;;;;;;;;;;4998451;28;20088;-74
2023/08/05 12:52:05;;;;;;;8.23;7.65;;;;;;;;;;4999387;28;20038;-74
2023/08/05 12:54:31;;;;;;;8.30;7.72;;;;;;;;;;4994217;28;20041;-75
2023/08/05 12:56:57;;;;;;;8.57;7.97;;;;;;;;;;4998884;28;20891;-75
2023/08/05 12:59:23;;;;;;;8.88;8.23;;;;;;;;;;4995237;28;20054;-75
2023/08/05 13:01:48;;;;;;;8.45;7.95;;;;;;;;;;4998184;28;21052;-75
2023/08/05 13:04:14;;;;;;;9.05;8.35;;;;;;;;;;4995859;28;20535;-74
2023/08/05 13:06:39;;;;;;;9.00;8.43;;;;;;;;;;4995964;28;20057;-75
2023/08/05 13:09:05;;;;;;;8.75;8.15;;;;;;;;;;5000568;28;20030;-74
2023/08/05 13:11:30;;;;;;;9.00;8.50;;;;;;;;;;4999474;28;20507;-74
2023/08/05 13:13:56;;;;;;;9.32;8.73;;;;;;;;;;4998140;28;20042;-74
2023/08/05 13:16:22;;;;;;;8.73;8.20;;;;;;;;;;4995334;28;20038;-74
2023/08/05 13:18:47;;;;;;;8.77;8.25;;;;;;;;;;4989857;28;20562;-75
2023/08/05 13:21:13;;;;;;;8.88;8.27;;;;;;;;;;4999229;28;20034;-75
2023/08/05 13:23:38;;;;;;;9.40;8.60;;;;;;;;;;5000051;28;20021;-74
2023/08/05 13:26:04;;;;;;;9.57;8.80;;;;;;;;;;4997955;28;20037;-74
2023/08/05 13:28:29;;;;;;;9.27;8.68;;;;;;;;;;4999455;28;20038;-74
2023/08/05 13:31:03;;;;;;;10.05;8.60;;;;;;;;;;5001457;28;20041;-74
2023/08/05 13:33:29;;;;;;;9.07;8.48;;;;;;;;;;5000810;28;20065;-74
2023/08/05 13:35:55;;;;;;;8.90;8.05;;;;;;;;;;5005938;28;20133;-74
2023/08/05 13:38:20;;;;;;;9.75;8.55;;;;;;;;;;4995234;28;20105;-74
2023/08/05 13:40:55;;;;;;;8.85;8.15;;;;;;;;;;5007070;28;20034;-74
2023/08/05 13:43:21;;;;;;;8.40;7.90;;;;;;;;;;5006901;28;20132;-74
2023/08/05 13:45:51;;;;;;;8.90;8.20;;;;;;;;;;5005739;28;20503;-74
2023/08/05 13:48:17;;;;;;;8.63;8.02;;;;;;;;;;5005713;28;20034;-74
2023/08/05 13:50:43;;;;;;;9.13;8.52;;;;;;;;;;5006826;28;20040;-74
2023/08/05 13:53:09;;;;;;;9.63;8.60;;;;;;;;;;5006748;28;20112;-75
2023/08/05 13:55:35;;;;;;;9.13;8.52;;;;;;;;;;5006833;28;20122;-74
2023/08/05 13:58:01;;;;;;;9.30;8.60;;;;;;;;;;5009042;28;20038;-74
2023/08/05 14:00:26;;;;;;;9.10;8.40;;;;;;;;;;5013082;28;20072;-74
2023/08/05 14:02:52;;;;;;;9.70;8.90;;;;;;;;;;5005871;28;20045;-75
2023/08/05 14:05:18;;;;;;;9.10;8.50;;;;;;;;;;5006991;28;20048;-75
2023/08/05 14:07:44;;;;;;;9.15;8.55;;;;;;;;;;5006735;28;20486;-75
2023/08/05 14:10:10;;;;;;;9.60;8.90;;;;;;;;;;5005286;28;20049;-75
2023/08/05 14:12:36;;;;;;;9.07;8.43;;;;;;;;;;5006474;28;20033;-75
2023/08/05 14:15:03;;;;;;;11.50;10.38;;;;;;;;;;5006142;28;20057;-75
2023/08/05 14:17:29;;;;;;;9.25;8.57;;;;;;;;;;5006056;28;20029;-75
2023/08/05 14:19:55;;;;;;;9.80;9.20;;;;;;;;;;5003898;28;20848;-75
2023/08/05 14:22:21;;;;;;;10.05;9.25;;;;;;;;;;5006349;28;20070;-74
2023/08/05 14:24:47;;;;;;;10.20;9.40;;;;;;;;;;5006224;28;20033;-74
2023/08/05 14:27:12;;;;;;;9.63;8.85;;;;;;;;;;5006391;28;20668;-75
2023/08/05 14:29:38;;;;;;;9.18;8.52;;;;;;;;;;5005092;28;20038;-75
2023/08/05 14:32:04;;;;;;;9.13;8.50;;;;;;;;;;5000610;28;20038;-75